sensor_id;sensor_type;location;lat;lon;timestamp;pressure;altitude;pressure_sealevel;temperature;humidity
60433;BME280;46286;48.098;11.590;2022-11-20T00:00:05;94915.88;;;3.72;100.00
60433;BME280;46286;48.098;11.590;2022-11-20T00:02:51;94917.53;;;3.78;100.00
60433;BME280;46286;48.098;11.590;2022-11-20T00:05:17;94919.66;;;3.81;100.00
60433;BME280;46286;48.098;11.590;2022-11-20T00:07:43;94918.69;;;3.87;100.00
60433;BME280;46286;48.098;11.590;2022-11-20T00:10:09;94912.38;;;3.83;100.00
60433;BME280;46286;48.098;11.590;2022-11-20T00:12:34;94916.63;;;3.89;100.00
60433;BME280;46286;48.098;11.590;2022-11-20T00:15:00;94922.78;;;3.83;100.00
60433;BME280;46286;48.098;11.590;2022-11-20T00:17:25;94927.50;;;3.86;100.00
60433;BME280;46286;48.098;11.590;2022-11-20T00:19:51;94929.72;;;3.94;100.00
60433;BME280;46286;48.098;11.590;2022-11-20T00:22:16;94921.81;;;3.89;100.00
60433;BME280;46286;48.098;11.590;2022-11-20T00:24:42;94921.91;;;3.94;100.00
60433;BME280;46286;48.098;11.590;2022-11-20T00:27:07;94927.63;;;3.96;100.00
60433;BME280;46286;48.098;11.590;2022-11-20T00:29:33;94925.03;;;3.96;100.00
60433;BME280;46286;48.098;11.590;2022-11-20T00:31:58;94930.19;;;3.91;100.00
60433;BME280;46286;48.098;11.590;2022-11-20T00:34:24;94927.03;;;3.89;100.00
60433;BME280;46286;48.098;11.590;2022-11-20T00:36:49;94926.44;;;4.04;100.00
60433;BME280;46286;48.098;11.590;2022-11-20T00:39:15;94933.34;;;3.93;100.00
60433;BME280;46286;48.098;11.590;2022-11-20T00:41:40;94929.41;;;3.91;100.00
60433;BME280;46286;48.098;11.590;2022-11-20T00:44:06;94934.25;;;4.04;100.00
60433;BME280;46286;48.098;11.590;2022-11-20T00:46:31;94939.72;;;4.03;100.00
60433;BME280;46286;48.098;11.590;2022-11-20T00:48:57;94941.81;;;4.06;100.00
60433;BME280;46286;48.098;11.590;2022-11-20T00:51:24;94943.41;;;4.07;100.00
60433;BME280;46286;48.098;11.590;2022-11-20T00:53:50;94945.34;;;3.94;100.00
60433;BME280;46286;48.098;11.590;2022-11-20T00:56:17;94948.00;;;3.99;100.00
60433;BME280;46286;48.098;11.590;2022-11-20T00:58:45;94953.66;;;3.96;100.00
60433;BME280;46286;48.098;11.590;2022-11-20T01:01:12;94954.47;;;3.97;100.00
60433;BME280;46286;48.098;11.590;2022-11-20T01:03:40;94951.63;;;3.98;100.00
60433;BME280;46286;48.098;11.590;2022-11-20T01:06:27;94959.28;;;4.05;100.00
60433;BME280;46286;48.098;11.590;2022-11-20T01:08:55;94952.72;;;4.03;100.00
60433;BME280;46286;48.098;11.590;2022-11-20T01:11:26;94950.25;;;3.91;100.00
60433;BME280;46286;48.098;11.590;2022-11-20T01:13:53;94962.34;;;4.02;100.00
60433;BME280;46286;48.098;11.590;2022-11-20T01:16:20;94961.28;;;3.98;100.00
60433;BME280;46286;48.098;11.590;2022-11-20T01:18:49;94956.72;;;3.88;100.00
60433;BME280;46286;48.098;11.590;2022-11-20T01:21:21;94963.78;;;3.93;100.00
60433;BME280;46286;48.098;11.590;2022-11-20T01:23:48;94964.69;;;4.04;100.00
60433;BME280;46286;48.098;11.590;2022-11-20T01:26:34;94962.53;;;3.95;100.00
60433;BME280;46286;48.098;11.590;2022-11-20T01:29:01;94958.88;;;3.96;100.00
60433;BME280;46286;48.098;11.590;2022-11-20T01:31:29;94969.78;;;3.93;100.00
60433;BME280;46286;48.098;11.590;2022-11-20T01:33:57;94961.19;;;3.93;100.00
60433;BME280;46286;48.098;11.590;2022-11-20T01:36:24;94961.91;;;3.88;100.00
60433;BME280;46286;48.098;11.590;2022-11-20T01:38:52;94964.56;;;3.93;100.00
60433;BME280;46286;48.098;11.590;2022-11-20T01:41:19;94963.78;;;3.93;100.00
60433;BME280;46286;48.098;11.590;2022-11-20T01:44:04;94968.22;;;3.92;100.00
60433;BME280;46286;48.098;11.590;2022-11-20T01:46:35;94968.69;;;3.89;100.00
60433;BME280;46286;48.098;11.590;2022-11-20T01:49:05;94972.94;;;3.95;100.00
60433;BME280;46286;48.098;11.590;2022-11-20T01:51:44;94960.41;;;3.92;100.00
60433;BME280;46286;48.098;11.590;2022-11-20T01:54:20;94963.03;;;3.92;100.00
60433;BME280;46286;48.098;11.590;2022-11-20T01:56:51;94963.56;;;3.94;100.00
60433;BME280;46286;48.098;11.590;2022-11-20T01:59:21;94963.78;;;3.93;100.00
60433;BME280;46286;48.098;11.590;2022-11-20T02:01:47;94965.13;;;3.95;100.00
60433;BME280;46286;48.098;11.590;2022-11-20T02:04:14;94961.44;;;3.91;100.00
60433;BME280;46286;48.098;11.590;2022-11-20T02:06:58;94969.28;;;3.96;100.00
60433;BME280;46286;48.098;11.590;2022-11-20T02:09:25;94960.94;;;3.94;100.00
60433;BME280;46286;48.098;11.590;2022-11-20T02:11:52;94958.25;;;3.89;100.00
60433;BME280;46286;48.098;11.590;2022-11-20T02:14:18;94961.97;;;3.93;100.00
60433;BME280;46286;48.098;11.590;2022-11-20T02:16:45;94961.44;;;3.91;100.00
60433;BME280;46286;48.098;11.590;2022-11-20T02:19:28;94958.34;;;3.94;100.00
60433;BME280;46286;48.098;11.590;2022-11-20T02:22:14;94963.47;;;3.89;100.00
60433;BME280;46286;48.098;11.590;2022-11-20T02:24:44;94964.09;;;3.96;100.00
60433;BME280;46286;48.098;11.590;2022-11-20T02:27:15;94965.13;;;3.95;100.00
60433;BME280;46286;48.098;11.590;2022-11-20T02:29:50;94969.28;;;3.96;100.00
60433;BME280;46286;48.098;11.590;2022-11-20T02:32:31;94963.03;;;3.92;100.00
60433;BME280;46286;48.098;11.590;2022-11-20T02:34:57;94971.38;;;3.94;100.00
60433;BME280;46286;48.098;11.590;2022-11-20T02:37:27;94956.22;;;3.91;100.00
60433;BME280;46286;48.098;11.590;2022-11-20T02:39:56;94968.47;;;3.91;100.00
60433;BME280;46286;48.098;11.590;2022-11-20T02:42:21;94966.16;;;3.94;100.00
60433;BME280;46286;48.098;11.590;2022-11-20T02:44:47;94963.47;;;3.89;100.00
60433;BME280;46286;48.098;11.590;2022-11-20T02:47:12;94969.28;;;3.96;100.00
60433;BME280;46286;48.098;11.590;2022-11-20T02:49:38;94965.06;;;3.90;100.00
60433;BME280;46286;48.098;11.590;2022-11-20T02:52:03;94960.81;;;3.84;100.00
60433;BME280;46286;48.098;11.590;2022-11-20T02:54:29;94965.00;;;3.85;100.00
60433;BME280;46286;48.098;11.590;2022-11-20T02:56:55;94970.75;;;3.87;100.00
60433;BME280;46286;48.098;11.590;2022-11-20T02:59:20;94969.78;;;3.93;100.00
60433;BME280;46286;48.098;11.590;2022-11-20T03:01:45;94963.97;;;3.86;100.00
60433;BME280;46286;48.098;11.590;2022-11-20T03:04:11;94968.69;;;3.89;100.00
60433;BME280;46286;48.098;11.590;2022-11-20T03:06:37;94965.00;;;3.85;100.00
60433;BME280;46286;48.098;11.590;2022-11-20T03:09:02;94967.13;;;3.88;100.00
60433;BME280;46286;48.098;11.590;2022-11-20T03:11:28;94970.75;;;3.87;100.00
60433;BME280;46286;48.098;11.590;2022-11-20T03:13:53;94955.66;;;3.89;100.00
60433;BME280;46286;48.098;11.590;2022-11-20T03:16:21;94963.47;;;3.89;100.00
60433;BME280;46286;48.098;11.590;2022-11-20T03:18:47;94958.47;;;3.83;100.00
60433;BME280;46286;48.098;11.590;2022-11-20T03:21:13;94952.53;;;3.87;100.00
60433;BME280;46286;48.098;11.590;2022-11-20T03:23:40;94964.56;;;3.93;100.00
60433;BME280;46286;48.098;11.590;2022-11-20T03:26:14;94957.81;;;3.92;100.00
60433;BME280;46286;48.098;11.590;2022-11-20T03:28:42;94954.97;;;3.94;100.00
60433;BME280;46286;48.098;11.590;2022-11-20T03:31:13;94954.16;;;3.93;100.00
60433;BME280;46286;48.098;11.590;2022-11-20T03:33:40;94955.75;;;3.94;100.00
60433;BME280;46286;48.098;11.590;2022-11-20T03:36:09;94956.06;;;3.98;100.00
60433;BME280;46286;48.098;11.590;2022-11-20T03:38:36;94961.44;;;3.91;100.00
60433;BME280;46286;48.098;11.590;2022-11-20T03:41:08;94960.47;;;3.97;100.00
60433;BME280;46286;48.098;11.590;2022-11-20T03:43:34;94960.94;;;3.94;100.00
60433;BME280;46286;48.098;11.590;2022-11-20T03:45:59;94956.28;;;3.96;100.00
60433;BME280;46286;48.098;11.590;2022-11-20T03:48:25;94960.72;;;3.96;100.00
60433;BME280;46286;48.098;11.590;2022-11-20T03:50:52;94958.84;;;3.91;100.00
60433;BME280;46286;48.098;11.590;2022-11-20T03:53:19;94961.91;;;3.88;100.00
60433;BME280;46286;48.098;11.590;2022-11-20T03:55:49;94963.47;;;3.89;100.00
60433;BME280;46286;48.098;11.590;2022-11-20T03:58:15;94960.94;;;3.94;100.00
60433;BME280;46286;48.098;11.590;2022-11-20T04:00:41;94966.63;;;3.91;100.00
60433;BME280;46286;48.098;11.590;2022-11-20T04:03:06;94964.75;;;3.87;100.00
60433;BME280;46286;48.098;11.590;2022-11-20T04:05:33;94970.50;;;3.89;100.00
60433;BME280;46286;48.098;11.590;2022-11-20T04:07:59;94974.06;;;3.83;100.00
60433;BME280;46286;48.098;11.590;2022-11-20T04:10:25;94974.38;;;3.86;100.00
60433;BME280;46286;48.098;11.590;2022-11-20T04:12:51;94969.00;;;3.93;100.00
60433;BME280;46286;48.098;11.590;2022-11-20T04:15:16;94972.38;;;3.93;100.00
60433;BME280;46286;48.098;11.590;2022-11-20T04:17:42;94965.38;;;3.94;100.00
60433;BME280;46286;48.098;11.590;2022-11-20T04:20:07;94965.00;;;3.85;100.00
60433;BME280;46286;48.098;11.590;2022-11-20T04:22:33;94966.03;;;3.84;100.00
60433;BME280;46286;48.098;11.590;2022-11-20T04:24:58;94968.69;;;3.89;100.00
60433;BME280;46286;48.098;11.590;2022-11-20T04:27:24;94968.88;;;3.83;100.00
60433;BME280;46286;48.098;11.590;2022-11-20T04:29:49;94967.03;;;3.83;100.00
60433;BME280;46286;48.098;11.590;2022-11-20T04:32:15;94966.03;;;3.84;100.00
60433;BME280;46286;48.098;11.590;2022-11-20T04:34:40;94972.34;;;3.88;100.00
60433;BME280;46286;48.098;11.590;2022-11-20T04:37:06;94973.25;;;3.82;100.00
60433;BME280;46286;48.098;11.590;2022-11-20T04:39:31;94966.50;;;3.81;100.00
60433;BME280;46286;48.098;11.590;2022-11-20T04:41:57;94963.34;;;3.79;100.00
60433;BME280;46286;48.098;11.590;2022-11-20T04:44:41;94970.03;;;3.75;100.00
60433;BME280;46286;48.098;11.590;2022-11-20T04:47:06;94969.09;;;3.81;100.00
60433;BME280;46286;48.098;11.590;2022-11-20T04:49:32;94969.66;;;3.83;100.00
60433;BME280;46286;48.098;11.590;2022-11-20T04:51:59;94969.16;;;3.86;100.00
60433;BME280;46286;48.098;11.590;2022-11-20T04:54:24;94975.34;;;3.80;100.00
60433;BME280;46286;48.098;11.590;2022-11-20T04:56:50;94973.25;;;3.82;100.00
60433;BME280;46286;48.098;11.590;2022-11-20T04:59:16;94970.13;;;3.80;100.00
60433;BME280;46286;48.098;11.590;2022-11-20T05:01:41;94975.19;;;3.87;100.00
60433;BME280;46286;48.098;11.590;2022-11-20T05:04:07;94969.16;;;3.86;100.00
60433;BME280;46286;48.098;11.590;2022-11-20T05:06:33;94975.78;;;3.94;100.00
60433;BME280;46286;48.098;11.590;2022-11-20T05:08:59;94979.09;;;3.89;100.00
60433;BME280;46286;48.098;11.590;2022-11-20T05:11:24;94970.25;;;3.90;100.00
60433;BME280;46286;48.098;11.590;2022-11-20T05:13:51;94965.53;;;3.87;100.00
60433;BME280;46286;48.098;11.590;2022-11-20T05:16:19;94959.84;;;3.90;100.00
60433;BME280;46286;48.098;11.590;2022-11-20T05:18:45;94955.22;;;3.92;100.00
60433;BME280;46286;48.098;11.590;2022-11-20T05:21:11;94965.53;;;3.87;100.00
60433;BME280;46286;48.098;11.590;2022-11-20T05:23:38;94965.19;;;4.01;100.00
60433;BME280;46286;48.098;11.590;2022-11-20T05:26:05;94967.75;;;3.95;100.00
60433;BME280;46286;48.098;11.590;2022-11-20T05:28:31;94968.22;;;3.92;100.00
60433;BME280;46286;48.098;11.590;2022-11-20T05:31:05;94969.28;;;3.96;100.00
60433;BME280;46286;48.098;11.590;2022-11-20T05:33:31;94966.16;;;3.94;100.00
60433;BME280;46286;48.098;11.590;2022-11-20T05:35:59;94965.06;;;3.90;100.00
60433;BME280;46286;48.098;11.590;2022-11-20T05:38:25;94972.94;;;3.95;100.00
60433;BME280;46286;48.098;11.590;2022-11-20T05:40:51;94969.28;;;3.96;100.00
60433;BME280;46286;48.098;11.590;2022-11-20T05:43:16;94969.25;;;3.91;100.00
60433;BME280;46286;48.098;11.590;2022-11-20T05:45:42;94974.50;;;3.96;100.00
60433;BME280;46286;48.098;11.590;2022-11-20T05:48:07;94980.19;;;3.93;100.00
60433;BME280;46286;48.098;11.590;2022-11-20T05:50:33;94979.56;;;3.86;100.00
60433;BME280;46286;48.098;11.590;2022-11-20T05:52:59;94981.78;;;3.94;100.00
60433;BME280;46286;48.098;11.590;2022-11-20T05:55:25;94983.75;;;3.87;100.00
60433;BME280;46286;48.098;11.590;2022-11-20T05:57:53;94975.41;;;3.85;100.00
60433;BME280;46286;48.098;11.590;2022-11-20T06:00:19;94988.44;;;3.85;100.00
60433;BME280;46286;48.098;11.590;2022-11-20T06:02:45;94977.41;;;3.78;100.00
60433;BME280;46286;48.098;11.590;2022-11-20T06:05:10;94982.00;;;3.71;100.00
60433;BME280;46286;48.098;11.590;2022-11-20T06:07:36;94985.41;;;3.76;100.00
60433;BME280;46286;48.098;11.590;2022-11-20T06:10:02;94981.06;;;3.82;100.00
60433;BME280;46286;48.098;11.590;2022-11-20T06:12:27;94987.81;;;3.78;100.00
60433;BME280;46286;48.098;11.590;2022-11-20T06:14:53;94985.66;;;3.75;100.00
60433;BME280;46286;48.098;11.590;2022-11-20T06:17:18;94982.44;;;3.68;100.00
60433;BME280;46286;48.098;11.590;2022-11-20T06:19:44;94982.91;;;3.64;100.00
60433;BME280;46286;48.098;11.590;2022-11-20T06:22:10;94973.72;;;3.57;100.00
60433;BME280;46286;48.098;11.590;2022-11-20T06:24:35;94976.47;;;3.67;100.00
60433;BME280;46286;48.098;11.590;2022-11-20T06:27:01;94973.38;;;3.53;100.00
60433;BME280;46286;48.098;11.590;2022-11-20T06:29:26;94982.78;;;3.54;100.00
60433;BME280;46286;48.098;11.590;2022-11-20T06:31:52;94971.88;;;3.57;100.00
60433;BME280;46286;48.098;11.590;2022-11-20T06:34:17;94978.19;;;3.61;100.00
60433;BME280;46286;48.098;11.590;2022-11-20T06:36:43;94990.47;;;3.49;100.00
60433;BME280;46286;48.098;11.590;2022-11-20T06:39:09;94990.47;;;3.49;100.00
60433;BME280;46286;48.098;11.590;2022-11-20T06:41:34;94992.88;;;3.51;100.00
60433;BME280;46286;48.098;11.590;2022-11-20T06:44:00;94998.84;;;3.51;100.00
60433;BME280;46286;48.098;11.590;2022-11-20T06:46:25;94999.00;;;3.44;100.00
60433;BME280;46286;48.098;11.590;2022-11-20T06:48:51;95001.56;;;3.56;100.00
60433;BME280;46286;48.098;11.590;2022-11-20T06:51:16;95010.38;;;3.55;100.00
60433;BME280;46286;48.098;11.590;2022-11-20T06:53:42;95007.13;;;3.48;100.00
60433;BME280;46286;48.098;11.590;2022-11-20T06:56:08;95006.56;;;3.46;100.00
60433;BME280;46286;48.098;11.590;2022-11-20T06:58:35;95014.94;;;3.48;100.00
60433;BME280;46286;48.098;11.590;2022-11-20T07:01:06;95010.38;;;3.55;100.00
60433;BME280;46286;48.098;11.590;2022-11-20T07:03:33;95022.38;;;3.56;100.00
60433;BME280;46286;48.098;11.590;2022-11-20T07:06:00;95020.78;;;3.55;100.00
60433;BME280;46286;48.098;11.590;2022-11-20T07:08:26;95013.50;;;3.57;100.00
60433;BME280;46286;48.098;11.590;2022-11-20T07:10:52;95017.69;;;3.58;100.00
60433;BME280;46286;48.098;11.590;2022-11-20T07:13:17;95014.63;;;3.78;100.00
60433;BME280;46286;48.098;11.590;2022-11-20T07:15:43;95021.31;;;3.74;100.00
60433;BME280;46286;48.098;11.590;2022-11-20T07:18:08;95021.56;;;3.73;100.00
60433;BME280;46286;48.098;11.590;2022-11-20T07:20:34;95015.41;;;3.79;100.00
60433;BME280;46286;48.098;11.590;2022-11-20T07:23:00;95019.19;;;3.88;100.00
60433;BME280;46286;48.098;11.590;2022-11-20T07:25:27;95022.56;;;4.06;100.00
60433;BME280;46286;48.098;11.590;2022-11-20T07:27:57;95026.56;;;3.96;100.00
60433;BME280;46286;48.098;11.590;2022-11-20T07:30:23;95029.66;;;3.93;100.00
60433;BME280;46286;48.098;11.590;2022-11-20T07:32:52;95027.53;;;3.90;100.00
60433;BME280;46286;48.098;11.590;2022-11-20T07:35:19;95025.00;;;3.95;100.00
60433;BME280;46286;48.098;11.590;2022-11-20T07:37:44;95029.75;;;3.98;100.00
60433;BME280;46286;48.098;11.590;2022-11-20T07:40:12;95021.38;;;3.96;100.00
60433;BME280;46286;48.098;11.590;2022-11-20T07:42:38;95029.25;;;4.02;100.00
60433;BME280;46286;48.098;11.590;2022-11-20T07:45:03;95028.78;;;4.05;100.00
60433;BME280;46286;48.098;11.590;2022-11-20T07:47:35;95031.94;;;4.07;100.00
60433;BME280;46286;48.098;11.590;2022-11-20T07:50:00;95030.50;;;4.16;100.00
60433;BME280;46286;48.098;11.590;2022-11-20T07:52:25;95027.84;;;4.11;100.00
60433;BME280;46286;48.098;11.590;2022-11-20T07:54:51;95034.31;;;4.08;100.00
60433;BME280;46286;48.098;11.590;2022-11-20T07:57:16;95025.78;;;4.13;100.00
60433;BME280;46286;48.098;11.590;2022-11-20T07:59:42;95025.84;;;4.18;100.00
60433;BME280;46286;48.098;11.590;2022-11-20T08:02:10;95025.28;;;4.16;100.00
60433;BME280;46286;48.098;11.590;2022-11-20T08:04:35;95026.38;;;4.20;100.00
60433;BME280;46286;48.098;11.590;2022-11-20T08:07:01;95033.97;;;4.22;100.00
60433;BME280;46286;48.098;11.590;2022-11-20T08:09:26;95026.22;;;4.27;100.00
60433;BME280;46286;48.098;11.590;2022-11-20T08:11:52;95023.84;;;4.25;100.00
60433;BME280;46286;48.098;11.590;2022-11-20T08:14:35;95027.59;;;4.34;100.00
60433;BME280;46286;48.098;11.590;2022-11-20T08:17:01;95028.59;;;4.28;100.00
60433;BME280;46286;48.098;11.590;2022-11-20T08:19:26;95035.66;;;4.33;100.00
60433;BME280;46286;48.098;11.590;2022-11-20T08:21:52;95027.69;;;4.40;100.00
60433;BME280;46286;48.098;11.590;2022-11-20T08:24:18;95026.63;;;4.41;100.00
60433;BME280;46286;48.098;11.590;2022-11-20T08:26:43;95029.81;;;4.43;100.00
60433;BME280;46286;48.098;11.590;2022-11-20T08:29:09;95035.38;;;4.51;100.00
60433;BME280;46286;48.098;11.590;2022-11-20T08:31:34;95034.03;;;4.49;100.00
60433;BME280;46286;48.098;11.590;2022-11-20T08:34:20;95043.19;;;4.51;100.00
60433;BME280;46286;48.098;11.590;2022-11-20T08:36:46;95042.72;;;4.55;100.00
60433;BME280;46286;48.098;11.590;2022-11-20T08:39:12;95043.25;;;4.57;100.00
60433;BME280;46286;48.098;11.590;2022-11-20T08:41:37;95044.91;;;4.63;100.00
60433;BME280;46286;48.098;11.590;2022-11-20T08:44:05;95032.66;;;4.63;100.00
60433;BME280;46286;48.098;11.590;2022-11-20T08:46:34;95041.81;;;4.66;100.00
60433;BME280;46286;48.098;11.590;2022-11-20T08:49:01;95034.28;;;4.69;100.00
60433;BME280;46286;48.098;11.590;2022-11-20T08:51:27;95034.16;;;4.81;100.00
60433;BME280;46286;48.098;11.590;2022-11-20T08:53:53;95026.13;;;4.88;100.00
60433;BME280;46286;48.098;11.590;2022-11-20T08:56:18;95035.47;;;4.84;100.00
60433;BME280;46286;48.098;11.590;2022-11-20T08:58:44;95038.69;;;4.91;100.00
60433;BME280;46286;48.098;11.590;2022-11-20T09:01:10;95034.44;;;4.85;100.00
60433;BME280;46286;48.098;11.590;2022-11-20T09:03:36;95036.56;;;4.88;100.00
60433;BME280;46286;48.098;11.590;2022-11-20T09:06:06;95037.66;;;4.92;100.00
60433;BME280;46286;48.098;11.590;2022-11-20T09:08:33;95026.22;;;4.98;100.00
60433;BME280;46286;48.098;11.590;2022-11-20T09:10:59;95033.09;;;5.05;100.00
60433;BME280;46286;48.098;11.590;2022-11-20T09:13:26;95028.63;;;5.00;100.00
60433;BME280;46286;48.098;11.590;2022-11-20T09:15:59;95029.91;;;4.97;100.00
60433;BME280;46286;48.098;11.590;2022-11-20T09:18:26;95030.19;;;5.01;100.00
60433;BME280;46286;48.098;11.590;2022-11-20T09:20:56;95029.69;;;5.04;100.00
60433;BME280;46286;48.098;11.590;2022-11-20T09:23:22;95028.00;;;5.20;100.00
60433;BME280;46286;48.098;11.590;2022-11-20T09:25:48;95031.09;;;5.12;100.00
60433;BME280;46286;48.098;11.590;2022-11-20T09:28:13;95029.31;;;5.17;100.00
60433;BME280;46286;48.098;11.590;2022-11-20T09:30:39;95032.19;;;5.21;100.00
60433;BME280;46286;48.098;11.590;2022-11-20T09:33:05;95022.31;;;5.23;100.00
60433;BME280;46286;48.098;11.590;2022-11-20T09:35:32;95024.97;;;5.28;100.00
60433;BME280;46286;48.098;11.590;2022-11-20T09:37:58;95017.69;;;5.30;100.00
60433;BME280;46286;48.098;11.590;2022-11-20T09:40:28;95019.81;;;5.38;100.00
60433;BME280;46286;48.098;11.590;2022-11-20T09:43:09;95018.56;;;5.41;100.00
60433;BME280;46286;48.098;11.590;2022-11-20T09:48:36;95011.06;;;5.50;100.00
60433;BME280;46286;48.098;11.590;2022-11-20T09:54:19;95011.13;;;5.60;100.00
60433;BME280;46286;48.098;11.590;2022-11-20T09:56:55;95007.09;;;5.80;100.00
60433;BME280;46286;48.098;11.590;2022-11-20T09:59:43;95005.19;;;6.07;100.00
60433;BME280;46286;48.098;11.590;2022-11-20T10:05:15;95000.09;;;8.00;100.00
60433;BME280;46286;48.098;11.590;2022-11-20T10:07:48;94993.06;;;7.43;100.00
60433;BME280;46286;48.098;11.590;2022-11-20T10:10:34;94999.31;;;7.17;100.00
60433;BME280;46286;48.098;11.590;2022-11-20T10:13:26;94987.19;;;8.19;100.00
60433;BME280;46286;48.098;11.590;2022-11-20T10:16:09;94992.81;;;7.60;100.00
60433;BME280;46286;48.098;11.590;2022-11-20T10:31:36;94986.22;;;8.80;91.96
60433;BME280;46286;48.098;11.590;2022-11-20T10:36:47;94977.22;;;8.36;100.00
60433;BME280;46286;48.098;11.590;2022-11-20T10:39:26;94990.22;;;8.62;95.96
60433;BME280;46286;48.098;11.590;2022-11-20T10:41:55;94998.78;;;8.02;100.00
60433;BME280;46286;48.098;11.590;2022-11-20T10:44:26;94994.50;;;8.32;98.51
60433;BME280;46286;48.098;11.590;2022-11-20T10:47:15;94986.22;;;9.25;92.85
60433;BME280;46286;48.098;11.590;2022-11-20T10:49:43;94988.13;;;8.64;94.90
60433;BME280;46286;48.098;11.590;2022-11-20T10:57:46;94972.06;;;7.95;93.31
60433;BME280;46286;48.098;11.590;2022-11-20T11:00:14;94993.56;;;7.76;98.76
60433;BME280;46286;48.098;11.590;2022-11-20T11:02:46;94984.69;;;7.62;100.00
60433;BME280;46286;48.098;11.590;2022-11-20T11:05:22;94984.69;;;7.36;100.00
60433;BME280;46286;48.098;11.590;2022-11-20T11:07:56;94970.56;;;7.27;100.00
60433;BME280;46286;48.098;11.590;2022-11-20T11:10:28;94983.59;;;7.17;100.00
60433;BME280;46286;48.098;11.590;2022-11-20T11:12:58;94983.59;;;7.17;100.00
60433;BME280;46286;48.098;11.590;2022-11-20T11:15:39;94977.03;;;6.93;100.00
60433;BME280;46286;48.098;11.590;2022-11-20T11:18:05;94978.31;;;6.75;100.00
60433;BME280;46286;48.098;11.590;2022-11-20T11:20:34;94980.38;;;6.73;100.00
60433;BME280;46286;48.098;11.590;2022-11-20T11:22:59;94971.28;;;6.81;100.00
60433;BME280;46286;48.098;11.590;2022-11-20T11:25:35;94966.31;;;6.80;100.00
60433;BME280;46286;48.098;11.590;2022-11-20T11:28:24;94973.09;;;6.86;100.00
60433;BME280;46286;48.098;11.590;2022-11-20T11:30:51;94962.66;;;6.86;100.00
60433;BME280;46286;48.098;11.590;2022-11-20T11:33:28;94967.09;;;6.85;100.00
60433;BME280;46286;48.098;11.590;2022-11-20T11:35:59;94956.88;;;6.84;100.00
60433;BME280;46286;48.098;11.590;2022-11-20T11:38:32;94963.09;;;6.62;100.00
60433;BME280;46286;48.098;11.590;2022-11-20T11:41:00;94960.50;;;6.67;100.00
60433;BME280;46286;48.098;11.590;2022-11-20T11:43:29;94956.84;;;6.68;100.00
60433;BME280;46286;48.098;11.590;2022-11-20T11:46:35;94941.00;;;8.33;98.70
60433;BME280;46286;48.098;11.590;2022-11-20T11:51:40;94957.97;;;7.24;100.00
60433;BME280;46286;48.098;11.590;2022-11-20T11:54:26;94942.53;;;7.22;100.00
60433;BME280;46286;48.098;11.590;2022-11-20T11:56:53;94949.44;;;8.25;95.72
60433;BME280;46286;48.098;11.590;2022-11-20T11:59:36;94944.78;;;8.01;99.19
60433;BME280;46286;48.098;11.590;2022-11-20T12:02:22;94948.97;;;8.07;96.75
60433;BME280;46286;48.098;11.590;2022-11-20T12:04:55;94949.91;;;8.37;97.13
60433;BME280;46286;48.098;11.590;2022-11-20T12:07:39;94948.31;;;8.41;97.67
60433;BME280;46286;48.098;11.590;2022-11-20T12:10:14;94948.66;;;8.24;96.66
60433;BME280;46286;48.098;11.590;2022-11-20T12:12:42;94954.81;;;7.73;100.00
60433;BME280;46286;48.098;11.590;2022-11-20T12:15:20;94945.91;;;7.74;100.00
60433;BME280;46286;48.098;11.590;2022-11-20T12:17:48;94956.91;;;7.61;100.00
60433;BME280;46286;48.098;11.590;2022-11-20T12:20:14;94949.59;;;7.53;100.00
60433;BME280;46286;48.098;11.590;2022-11-20T12:25:20;94951.38;;;6.75;100.00
60433;BME280;46286;48.098;11.590;2022-11-20T12:30:25;94958.84;;;6.35;100.00
60433;BME280;46286;48.098;11.590;2022-11-20T12:33:15;94956.72;;;6.27;100.00
60433;BME280;46286;48.098;11.590;2022-11-20T12:43:25;94956.00;;;5.89;100.00
60433;BME280;46286;48.098;11.590;2022-11-20T12:51:51;94945.34;;;5.58;100.00
60433;BME280;46286;48.098;11.590;2022-11-20T12:54:33;94954.19;;;5.57;100.00
60433;BME280;46286;48.098;11.590;2022-11-20T13:00:16;94955.72;;;5.48;100.00
60433;BME280;46286;48.098;11.590;2022-11-20T13:05:21;94941.06;;;5.42;100.00
60433;BME280;46286;48.098;11.590;2022-11-20T13:07:51;94947.34;;;5.46;100.00
60433;BME280;46286;48.098;11.590;2022-11-20T13:10:31;94947.25;;;5.35;100.00
60433;BME280;46286;48.098;11.590;2022-11-20T13:13:11;94946.16;;;5.26;100.00
60433;BME280;46286;48.098;11.590;2022-11-20T13:18:21;94947.19;;;5.25;100.00
60433;BME280;46286;48.098;11.590;2022-11-20T13:20:47;94942.16;;;5.13;100.00
60433;BME280;46286;48.098;11.590;2022-11-20T13:23:27;94940.28;;;5.09;100.00
60433;BME280;46286;48.098;11.590;2022-11-20T13:26:04;94935.44;;;4.90;100.00
60433;BME280;46286;48.098;11.590;2022-11-20T13:28:31;94942.13;;;4.81;100.00
60433;BME280;46286;48.098;11.590;2022-11-20T13:30:57;94933.44;;;4.75;100.00
60433;BME280;46286;48.098;11.590;2022-11-20T13:33:36;94931.59;;;4.71;100.00
60433;BME280;46286;48.098;11.590;2022-11-20T13:36:19;94923.84;;;4.76;100.00
60433;BME280;46286;48.098;11.590;2022-11-20T13:38:50;94923.25;;;4.68;100.00
60433;BME280;46286;48.098;11.590;2022-11-20T13:41:28;94913.91;;;4.73;100.00
60433;BME280;46286;48.098;11.590;2022-11-20T13:44:13;94924.31;;;4.73;100.00
60433;BME280;46286;48.098;11.590;2022-11-20T13:46:44;94915.75;;;4.77;100.00
60433;BME280;46286;48.098;11.590;2022-11-20T13:49:47;94927.56;;;4.85;100.00
60433;BME280;46286;48.098;11.590;2022-11-20T13:55:33;94915.66;;;4.94;100.00
60433;BME280;46286;48.098;11.590;2022-11-20T13:58:15;94912.06;;;5.00;100.00
60433;BME280;46286;48.098;11.590;2022-11-20T14:00:51;94906.28;;;4.98;100.00
60433;BME280;46286;48.098;11.590;2022-11-20T14:03:21;94905.88;;;5.12;100.00